createdAt,value
2018-11-07T00:00:19.439Z,42.07
2018-11-07T00:02:48.820Z,43.73
2018-11-07T00:05:18.978Z,38.57
2018-11-07T00:07:48.234Z,37.23
2018-11-07T00:10:17.451Z,37.23
2018-11-07T00:12:46.720Z,35.90
2018-11-07T00:15:16.541Z,44.40
2018-11-07T00:17:45.752Z,42.40
2018-11-07T00:20:14.915Z,45.43
2018-11-07T00:22:44.105Z,39.87
2018-11-07T00:25:13.437Z,38.23
2018-11-07T00:27:42.776Z,41.30
2018-11-07T00:30:12.488Z,39.57
2018-11-07T00:32:41.643Z,39.33
2018-11-07T00:35:11.800Z,35.57
2018-11-07T00:37:41.983Z,45.80
2018-11-07T00:40:11.370Z,39.90
2018-11-07T00:42:40.591Z,37.47
2018-11-07T00:45:11.646Z,40.63
2018-11-07T00:47:40.825Z,42.97
2018-11-07T00:50:12.787Z,38.60
2018-11-07T00:52:42.304Z,42.43
2018-11-07T00:55:12.293Z,41.23
2018-11-07T00:57:41.668Z,45.70
2018-11-07T01:00:13.597Z,36.93
2018-11-07T01:02:42.807Z,33.30
2018-11-07T01:05:13.295Z,42.33
2018-11-07T01:07:43.503Z,33.77
2018-11-07T01:10:12.736Z,39.63
2018-11-07T01:12:42.825Z,36.33
2018-11-07T01:15:12.969Z,37.23
2018-11-07T01:17:42.158Z,38.80
2018-11-07T01:20:12.902Z,33.50
2018-11-07T01:22:47.125Z,38.80
2018-11-07T01:25:16.412Z,36.57
2018-11-07T01:27:45.575Z,41.90
2018-11-07T01:30:15.231Z,47.63
2018-11-07T01:32:44.450Z,44.80
2018-11-07T01:35:13.760Z,35.10
2018-11-07T01:37:42.909Z,46.13
2018-11-07T01:40:13.972Z,41.53
2018-11-07T01:42:44.033Z,41.70
2018-11-07T01:45:13.784Z,40.90
2018-11-07T01:47:43.075Z,42.10
2018-11-07T01:50:13.325Z,41.57
2018-11-07T01:52:42.504Z,42.10
2018-11-07T01:55:12.009Z,40.53
2018-11-07T01:57:41.243Z,41.97
2018-11-07T02:00:12.220Z,35.63
2018-11-07T02:02:42.650Z,69.30
2018-11-07T02:05:11.897Z,127.30
2018-11-07T02:07:41.328Z,147.37
2018-11-07T02:10:11.118Z,106.93
2018-11-07T02:12:40.928Z,78.33
2018-11-07T02:15:10.906Z,65.40
2018-11-07T02:17:40.272Z,75.73
2018-11-07T02:20:10.409Z,52.30
2018-11-07T02:22:39.648Z,40.77
2018-11-07T02:25:08.991Z,50.13
2018-11-07T02:27:38.228Z,45.40
2018-11-07T02:30:10.002Z,41.60
2018-11-07T02:32:39.184Z,40.67
2018-11-07T02:35:08.432Z,44.27
2018-11-07T02:37:37.611Z,45.07
2018-11-07T02:40:07.604Z,51.50
2018-11-07T02:42:36.872Z,38.30
2018-11-07T02:45:06.362Z,39.57
2018-11-07T02:47:35.518Z,32.20
2018-11-07T02:50:04.863Z,53.40
2018-11-07T02:52:33.998Z,47.07
2018-11-07T02:55:15.938Z,39.40
2018-11-07T02:57:45.104Z,47.80
2018-11-07T03:00:14.515Z,49.90
2018-11-07T03:02:43.650Z,50.17
2018-11-07T03:05:12.861Z,48.03
2018-11-07T03:07:42.214Z,47.00
2018-11-07T03:10:12.802Z,41.50
2018-11-07T03:12:42.400Z,36.27
2018-11-07T03:15:11.576Z,38.17
2018-11-07T03:17:40.757Z,38.00
2018-11-07T03:20:11.390Z,40.97
2018-11-07T03:22:40.575Z,43.27
2018-11-07T03:25:09.889Z,35.00
2018-11-07T03:27:39.021Z,46.80
2018-11-07T03:30:09.175Z,51.47
2018-11-07T03:32:38.386Z,57.43
2018-11-07T03:35:11.869Z,42.17
2018-11-07T03:37:41.061Z,47.60
2018-11-07T03:40:10.223Z,56.13
2018-11-07T03:42:39.375Z,35.57
2018-11-07T03:45:08.548Z,43.40
2018-11-07T03:47:37.730Z,46.37
2018-11-07T03:50:07.022Z,33.10
2018-11-07T03:52:36.240Z,43.67
2018-11-07T03:55:05.412Z,41.30
2018-11-07T03:57:34.640Z,46.77
2018-11-07T04:00:04.029Z,45.77
2018-11-07T04:02:33.179Z,37.97
2018-11-07T04:05:02.689Z,49.43
2018-11-07T04:07:31.851Z,88.50
2018-11-07T04:10:00.983Z,72.47
2018-11-07T04:12:30.148Z,91.17
2018-11-07T04:14:59.380Z,68.87
2018-11-07T04:17:28.528Z,79.03
2018-11-07T04:19:57.689Z,75.87
2018-11-07T04:22:26.834Z,62.87
2018-11-07T04:24:56.025Z,65.13
2018-11-07T04:27:29.637Z,68.67
2018-11-07T04:29:59.145Z,70.90
2018-11-07T04:32:28.368Z,83.30
2018-11-07T04:34:57.604Z,67.57
2018-11-07T04:37:26.776Z,70.73
2018-11-07T04:39:55.985Z,71.50
2018-11-07T04:42:25.208Z,61.17
2018-11-07T04:44:54.375Z,54.17
2018-11-07T04:47:23.765Z,50.17
2018-11-07T04:49:52.960Z,66.20
2018-11-07T04:52:22.167Z,45.00
2018-11-07T04:54:51.306Z,55.70
2018-11-07T04:57:20.505Z,62.83
2018-11-07T04:59:49.608Z,56.80
2018-11-07T05:02:18.811Z,46.20
2018-11-07T05:04:47.913Z,42.33
2018-11-07T05:07:17.128Z,58.43
2018-11-07T05:09:49.109Z,54.53
2018-11-07T05:12:18.285Z,47.53
2018-11-07T05:14:53.111Z,56.27
2018-11-07T05:17:22.338Z,55.13
2018-11-07T05:19:51.576Z,56.17
2018-11-07T05:22:20.744Z,48.73
2018-11-07T05:24:49.916Z,54.87
2018-11-07T05:27:19.131Z,62.93
2018-11-07T05:29:48.241Z,59.70
2018-11-07T05:32:17.356Z,57.17
2018-11-07T05:34:46.555Z,62.40
2018-11-07T05:37:15.765Z,54.97
2018-11-07T05:39:44.897Z,57.00
2018-11-07T05:42:14.112Z,56.40
2018-11-07T05:44:43.274Z,60.17
2018-11-07T05:47:12.476Z,70.90
2018-11-07T05:49:41.647Z,71.07
2018-11-07T05:52:10.836Z,61.30
2018-11-07T05:54:40.003Z,65.03
2018-11-07T05:57:09.183Z,63.03
2018-11-07T05:59:38.344Z,62.77
2018-11-07T06:02:07.539Z,65.40
2018-11-07T06:04:36.663Z,74.93
2018-11-07T06:07:05.891Z,73.97
2018-11-07T06:09:35.121Z,64.47
2018-11-07T06:12:04.395Z,72.23
2018-11-07T06:14:33.640Z,76.83
2018-11-07T06:17:02.766Z,63.60
2018-11-07T06:19:31.833Z,59.33
2018-11-07T06:22:00.955Z,58.23
2018-11-07T06:24:30.083Z,55.33
2018-11-07T06:26:59.360Z,60.47
2018-11-07T06:29:28.540Z,55.80
2018-11-07T06:31:57.765Z,53.63
2018-11-07T06:34:26.877Z,54.13
2018-11-07T06:36:56.005Z,64.00
2018-11-07T06:39:25.186Z,59.87
2018-11-07T06:41:54.341Z,62.67
2018-11-07T06:44:23.625Z,59.40
2018-11-07T06:46:52.823Z,56.03
2018-11-07T06:49:21.935Z,66.63
2018-11-07T06:51:51.060Z,62.87
2018-11-07T06:54:20.259Z,60.13
2018-11-07T06:56:49.419Z,60.00
2018-11-07T06:59:18.533Z,65.40
2018-11-07T07:01:47.750Z,161.03
2018-11-07T07:04:17.225Z,84.23
2018-11-07T07:06:46.628Z,73.73
2018-11-07T07:09:15.770Z,79.17
2018-11-07T07:11:44.925Z,60.77
2018-11-07T07:14:14.166Z,67.97
2018-11-07T07:16:43.415Z,56.83
2018-11-07T07:19:13.110Z,60.17
2018-11-07T07:21:42.226Z,75.50
2018-11-07T07:24:11.358Z,59.67
2018-11-07T07:26:40.515Z,60.73
2018-11-07T07:29:09.678Z,56.90
2018-11-07T07:31:38.869Z,53.03
2018-11-07T07:34:08.101Z,63.37
2018-11-07T07:36:37.248Z,69.27
2018-11-07T07:39:08.527Z,52.50
2018-11-07T07:41:37.707Z,53.67
2018-11-07T07:44:07.134Z,55.30
2018-11-07T07:46:36.317Z,59.83
2018-11-07T07:49:05.889Z,48.27
2018-11-07T07:51:35.176Z,49.70
2018-11-07T07:54:04.422Z,48.07
2018-11-07T07:56:33.651Z,47.23
2018-11-07T07:59:02.874Z,63.70
2018-11-07T08:01:32.148Z,47.17
2018-11-07T08:04:01.358Z,52.87
2018-11-07T08:06:33.796Z,48.93
2018-11-07T08:09:02.998Z,46.10
2018-11-07T08:11:32.177Z,47.30
2018-11-07T08:14:01.429Z,52.00
2018-11-07T08:16:30.577Z,55.13
2018-11-07T08:18:59.704Z,45.00
2018-11-07T08:21:29.094Z,49.33
2018-11-07T08:23:58.297Z,55.23
2018-11-07T08:26:27.527Z,51.10
2018-11-07T08:28:56.733Z,53.30
2018-11-07T08:31:25.871Z,49.63
2018-11-07T08:33:55.072Z,47.03
2018-11-07T08:36:24.232Z,48.83
2018-11-07T08:38:53.477Z,44.93
2018-11-07T08:41:22.565Z,49.77
2018-11-07T08:43:51.818Z,49.33
2018-11-07T08:46:21.072Z,57.43
2018-11-07T08:48:50.273Z,50.10
2018-11-07T08:51:19.499Z,48.03
2018-11-07T08:53:48.624Z,43.43
2018-11-07T08:56:17.779Z,47.27
2018-11-07T08:58:46.955Z,50.83
2018-11-07T09:01:16.220Z,50.93
2018-11-07T09:03:45.376Z,48.70
2018-11-07T09:06:14.561Z,45.93
2018-11-07T09:08:43.695Z,53.17
2018-11-07T09:11:12.967Z,47.47
2018-11-07T09:13:42.164Z,48.27
2018-11-07T09:16:11.378Z,46.50
2018-11-07T09:18:40.551Z,44.47
2018-11-07T09:21:09.750Z,53.80
2018-11-07T09:23:38.998Z,45.97
2018-11-07T09:26:08.312Z,49.43
2018-11-07T09:28:37.501Z,48.67
2018-11-07T09:31:06.752Z,42.20
2018-11-07T09:33:36.098Z,48.20
2018-11-07T09:36:05.407Z,45.97
2018-11-07T09:38:34.674Z,51.50
2018-11-07T09:41:03.818Z,44.17
2018-11-07T09:43:33.073Z,41.07
2018-11-07T09:46:02.257Z,49.50
2018-11-07T09:48:31.447Z,46.50
2018-11-07T09:51:00.675Z,45.37
2018-11-07T09:53:29.887Z,45.97
2018-11-07T09:55:59.049Z,47.83
2018-11-07T09:58:28.307Z,44.93
2018-11-07T10:00:57.496Z,44.60
2018-11-07T10:03:26.718Z,46.27
2018-11-07T10:05:55.893Z,46.57
2018-11-07T10:08:25.101Z,47.83
2018-11-07T10:10:54.318Z,46.53
2018-11-07T10:13:23.497Z,45.40
2018-11-07T10:15:52.672Z,45.20
2018-11-07T10:18:21.850Z,50.17
2018-11-07T10:20:51.079Z,44.97
2018-11-07T10:23:20.273Z,45.70
2018-11-07T10:25:49.488Z,45.73
2018-11-07T10:28:18.816Z,44.93
2018-11-07T10:30:47.964Z,44.27
2018-11-07T10:33:17.111Z,47.50
2018-11-07T10:35:46.331Z,41.90
2018-11-07T10:38:15.465Z,42.23
2018-11-07T10:40:44.776Z,43.07
2018-11-07T10:43:13.920Z,43.43
2018-11-07T10:45:43.081Z,44.60
2018-11-07T10:48:12.273Z,40.17
2018-11-07T10:50:41.446Z,44.83
2018-11-07T10:53:10.691Z,40.07
2018-11-07T10:55:39.877Z,36.63
2018-11-07T10:58:09.032Z,45.43
2018-11-07T11:00:43.391Z,39.57
2018-11-07T11:03:17.533Z,37.00
2018-11-07T11:05:46.765Z,45.63
2018-11-07T11:08:16.796Z,43.97
2018-11-07T11:10:45.990Z,39.73
2018-11-07T11:13:15.253Z,40.80
2018-11-07T11:15:44.413Z,36.97
2018-11-07T11:18:13.624Z,40.60
2018-11-07T11:20:42.813Z,42.00
2018-11-07T11:23:12.018Z,41.00
2018-11-07T11:25:41.269Z,38.47
2018-11-07T11:28:10.498Z,37.43
2018-11-07T11:30:39.721Z,38.23
2018-11-07T11:33:08.903Z,38.33
2018-11-07T11:35:38.009Z,38.87
2018-11-07T11:38:07.381Z,35.80
2018-11-07T11:40:36.554Z,39.57
2018-11-07T11:43:05.858Z,39.83
2018-11-07T11:45:35.156Z,39.93
2018-11-07T11:48:04.352Z,38.30
2018-11-07T11:50:33.492Z,41.83
2018-11-07T11:53:02.663Z,39.73
2018-11-07T11:55:31.880Z,38.67
2018-11-07T11:58:01.076Z,40.27
2018-11-07T12:00:30.221Z,40.47
2018-11-07T12:02:59.337Z,35.60
2018-11-07T12:05:28.513Z,42.10
2018-11-07T12:07:57.661Z,37.90
2018-11-07T12:10:27.337Z,37.10
2018-11-07T12:12:57.662Z,35.90
2018-11-07T12:15:27.978Z,38.20
2018-11-07T12:17:57.511Z,37.97
2018-11-07T12:20:26.782Z,39.27
2018-11-07T12:22:55.963Z,39.97
2018-11-07T12:25:25.208Z,40.13
2018-11-07T12:27:54.431Z,38.60
2018-11-07T12:30:24.407Z,36.43
2018-11-07T12:32:54.528Z,36.07
2018-11-07T12:35:24.041Z,37.33
2018-11-07T12:37:53.211Z,40.77
2018-11-07T12:40:22.378Z,42.57
2018-11-07T12:42:51.609Z,36.20
2018-11-07T12:45:20.769Z,38.07
2018-11-07T12:47:49.893Z,39.30
2018-11-07T12:50:20.687Z,39.43
2018-11-07T12:52:49.778Z,40.50
2018-11-07T12:55:19.680Z,43.83
2018-11-07T12:57:48.950Z,39.47
2018-11-07T13:00:21.307Z,35.53
2018-11-07T13:02:50.581Z,40.70
2018-11-07T13:05:20.713Z,33.07
2018-11-07T13:07:50.506Z,38.43
2018-11-07T13:10:20.781Z,42.97
2018-11-07T13:12:50.504Z,41.13
2018-11-07T13:15:19.923Z,42.97
2018-11-07T13:17:50.181Z,38.97
2018-11-07T13:20:20.653Z,40.70
2018-11-07T13:22:51.126Z,35.80
2018-11-07T13:25:20.661Z,37.97
2018-11-07T13:27:49.800Z,43.57
2018-11-07T13:30:20.283Z,37.33
2018-11-07T13:32:49.421Z,39.67
2018-11-07T13:35:19.395Z,36.80
2018-11-07T13:37:49.365Z,30.93
2018-11-07T13:40:22.597Z,35.67
2018-11-07T13:42:51.728Z,31.60
2018-11-07T13:45:22.108Z,31.73
2018-11-07T13:47:52.517Z,34.67
2018-11-07T13:50:21.756Z,31.10
2018-11-07T13:52:51.000Z,32.27
2018-11-07T13:55:20.103Z,31.97
2018-11-07T13:57:49.244Z,30.00
2018-11-07T14:00:19.871Z,29.47
2018-11-07T14:02:49.433Z,32.20
2018-11-07T14:05:18.757Z,29.87
2018-11-07T14:07:47.859Z,31.67
2018-11-07T14:10:20.466Z,33.10
2018-11-07T14:12:49.838Z,31.27
2018-11-07T14:15:19.001Z,30.27
2018-11-07T14:17:48.210Z,30.93
2018-11-07T14:20:17.624Z,27.20
2018-11-07T14:22:46.812Z,26.67
2018-11-07T14:25:15.993Z,32.93
2018-11-07T14:27:45.466Z,36.43
2018-11-07T14:30:18.807Z,29.73
2018-11-07T14:32:51.512Z,32.97
2018-11-07T14:35:21.003Z,36.30
2018-11-07T14:37:50.423Z,32.83
2018-11-07T14:40:19.563Z,43.07
2018-11-07T14:42:48.732Z,36.20
2018-11-07T14:45:17.921Z,39.73
2018-11-07T14:47:47.112Z,38.87
2018-11-07T14:50:16.251Z,39.77
2018-11-07T14:52:45.426Z,39.73
2018-11-07T14:55:14.723Z,42.73
2018-11-07T14:57:43.882Z,45.50
2018-11-07T15:00:14.747Z,37.40
2018-11-07T15:02:44.513Z,41.50
2018-11-07T15:05:14.573Z,39.20
2018-11-07T15:07:44.630Z,41.33
2018-11-07T15:10:14.748Z,42.67
2018-11-07T15:12:44.102Z,47.27
2018-11-07T15:15:14.773Z,41.20
2018-11-07T15:17:44.054Z,40.70
2018-11-07T15:20:14.268Z,38.07
2018-11-07T15:22:43.551Z,45.77
2018-11-07T15:25:13.949Z,37.80
2018-11-07T15:27:44.468Z,41.70
2018-11-07T15:30:14.545Z,39.80
2018-11-07T15:32:44.166Z,43.30
2018-11-07T15:35:13.651Z,43.43
2018-11-07T15:37:42.811Z,38.33
2018-11-07T15:40:15.539Z,36.50
2018-11-07T15:42:45.300Z,41.87
2018-11-07T15:45:15.785Z,40.07
2018-11-07T15:47:45.063Z,38.83
2018-11-07T15:51:17.217Z,41.73
2018-11-07T15:53:46.387Z,41.03
2018-11-07T15:56:15.637Z,42.27
2018-11-07T15:58:44.976Z,38.23
2018-11-07T16:01:14.224Z,42.00
2018-11-07T16:03:48.711Z,38.73
2018-11-07T16:06:19.186Z,37.30
2018-11-07T16:08:48.230Z,36.97
2018-11-07T16:11:17.578Z,37.50
2018-11-07T16:13:49.048Z,31.67
2018-11-07T16:16:18.502Z,40.03
2018-11-07T16:18:47.697Z,42.83
2018-11-07T16:21:16.881Z,38.90
2018-11-07T16:23:46.103Z,40.80
2018-11-07T16:26:15.373Z,45.97
2018-11-07T16:28:44.565Z,56.23
2018-11-07T16:31:13.828Z,40.67
2018-11-07T16:33:43.041Z,35.83
2018-11-07T16:36:12.249Z,46.40
2018-11-07T16:38:41.470Z,42.17
2018-11-07T16:41:10.724Z,34.70
2018-11-07T16:43:40.383Z,39.03
2018-11-07T16:46:09.570Z,42.63
2018-11-07T16:48:38.806Z,41.87
2018-11-07T16:51:08.065Z,41.33
2018-11-07T16:53:37.317Z,43.90
2018-11-07T16:56:06.974Z,42.43
2018-11-07T16:58:36.154Z,43.23
2018-11-07T17:01:05.474Z,41.53
2018-11-07T17:03:34.682Z,36.33
2018-11-07T17:06:03.857Z,40.53
2018-11-07T17:08:33.053Z,45.47
2018-11-07T17:11:02.270Z,39.53
2018-11-07T17:13:31.450Z,38.40
2018-11-07T17:16:00.635Z,39.27
2018-11-07T17:18:29.826Z,43.13
2018-11-07T17:20:59.078Z,38.40
2018-11-07T17:23:28.384Z,43.37
2018-11-07T17:25:57.582Z,41.83
2018-11-07T17:28:26.817Z,42.00
2018-11-07T17:30:56.009Z,49.20
2018-11-07T17:33:25.305Z,47.83
2018-11-07T17:35:54.554Z,45.77
2018-11-07T17:38:23.806Z,44.47
2018-11-07T17:40:53.161Z,39.80
2018-11-07T17:43:22.336Z,38.00
2018-11-07T17:45:51.658Z,42.87
2018-11-07T17:48:21.038Z,38.27
2018-11-07T17:50:50.202Z,45.03
2018-11-07T17:53:19.546Z,39.47
2018-11-07T17:55:49.147Z,42.87
2018-11-07T17:58:18.479Z,42.33
2018-11-07T18:00:47.692Z,47.57
2018-11-07T18:03:17.003Z,43.97
2018-11-07T18:05:46.398Z,64.30
2018-11-07T18:08:15.973Z,59.67
2018-11-07T18:10:45.433Z,63.43
2018-11-07T18:13:14.688Z,56.33
2018-11-07T18:15:44.108Z,60.67
2018-11-07T18:18:13.648Z,51.60
2018-11-07T18:20:43.317Z,56.93
2018-11-07T18:23:12.938Z,59.03
2018-11-07T18:25:42.485Z,48.90
2018-11-07T18:28:12.148Z,58.07
2018-11-07T18:30:41.875Z,49.47
2018-11-07T18:33:11.512Z,44.00
2018-11-07T18:35:41.169Z,57.53
2018-11-07T18:38:10.952Z,46.37
2018-11-07T18:40:40.750Z,56.73
2018-11-07T18:43:10.613Z,40.30
2018-11-07T18:45:40.184Z,41.27
2018-11-07T18:48:09.812Z,43.63
2018-11-07T18:50:39.583Z,39.13
2018-11-07T18:53:09.176Z,45.90
2018-11-07T18:55:38.782Z,50.33
2018-11-07T18:58:08.622Z,53.13
2018-11-07T19:00:38.380Z,52.50
2018-11-07T19:03:08.143Z,54.87
2018-11-07T19:05:38.723Z,51.27
2018-11-07T19:08:08.468Z,46.33
2018-11-07T19:10:38.798Z,56.53
2018-11-07T19:13:08.582Z,57.77
2018-11-07T19:15:38.337Z,55.10
2018-11-07T19:18:08.042Z,55.20
2018-11-07T19:20:37.736Z,60.70
2018-11-07T19:23:07.645Z,49.23
2018-11-07T19:25:37.266Z,56.70
2018-11-07T19:28:07.467Z,50.70
2018-11-07T19:30:37.388Z,48.43
2018-11-07T19:33:07.227Z,56.70
2018-11-07T19:35:36.876Z,51.20
2018-11-07T19:38:06.666Z,53.33
2018-11-07T19:40:36.366Z,55.30
2018-11-07T19:43:06.111Z,60.87
2018-11-07T19:45:35.886Z,58.47
2018-11-07T19:48:05.670Z,50.10
2018-11-07T19:50:35.346Z,48.83
2018-11-07T19:53:05.072Z,53.13
2018-11-07T19:55:34.821Z,57.00
2018-11-07T19:58:09.166Z,55.10
2018-11-07T20:00:38.940Z,57.27
2018-11-07T20:03:08.722Z,49.60
2018-11-07T20:05:38.372Z,62.63
2018-11-07T20:08:08.189Z,68.43
2018-11-07T20:10:38.015Z,63.10
2018-11-07T20:13:07.801Z,54.60
2018-11-07T20:15:37.642Z,55.00
2018-11-07T20:18:08.517Z,54.23
2018-11-07T20:20:38.190Z,60.97
2018-11-07T20:23:07.982Z,54.63
2018-11-07T20:25:37.692Z,62.40
2018-11-07T20:28:07.547Z,45.93
2018-11-07T20:30:37.183Z,66.30
2018-11-07T20:33:07.229Z,58.00
2018-11-07T20:35:36.930Z,60.80
2018-11-07T20:38:06.858Z,59.63
2018-11-07T20:40:36.629Z,57.37
2018-11-07T20:43:06.801Z,53.90
2018-11-07T20:45:36.573Z,64.53
2018-11-07T20:48:06.426Z,56.03
2018-11-07T20:50:36.201Z,66.57
2018-11-07T20:53:06.072Z,61.73
2018-11-07T20:55:35.878Z,65.47
2018-11-07T20:58:05.714Z,61.07
2018-11-07T21:00:35.456Z,61.43
2018-11-07T21:03:05.193Z,50.03
2018-11-07T21:05:34.922Z,49.70
2018-11-07T21:08:04.647Z,57.40
2018-11-07T21:10:34.348Z,52.30
2018-11-07T21:13:04.603Z,54.30
2018-11-07T21:15:34.243Z,59.33
2018-11-07T21:18:03.875Z,52.20
2018-11-07T21:20:33.573Z,46.47
2018-11-07T21:23:03.162Z,60.60
2018-11-07T21:25:32.933Z,54.50
2018-11-07T21:28:02.582Z,45.10
2018-11-07T21:30:33.621Z,54.20
2018-11-07T21:33:03.258Z,56.27
2018-11-07T21:35:32.829Z,59.33
2018-11-07T21:38:02.367Z,55.37
2018-11-07T21:40:31.843Z,48.67
2018-11-07T21:43:01.415Z,49.70
2018-11-07T21:45:30.862Z,45.97
2018-11-07T21:48:00.188Z,51.00
2018-11-07T21:50:29.605Z,52.37
2018-11-07T21:52:58.719Z,53.60
2018-11-07T21:55:28.042Z,48.47
2018-11-07T21:57:57.206Z,44.00
2018-11-07T22:00:26.662Z,51.33
2018-11-07T22:02:55.949Z,58.07
2018-11-07T22:05:25.459Z,60.80
2018-11-07T22:07:54.877Z,58.90
2018-11-07T22:10:24.564Z,55.63
2018-11-07T22:13:12.085Z,58.50
2018-11-07T22:15:41.360Z,47.10
2018-11-07T22:18:14.431Z,57.73
2018-11-07T22:20:43.527Z,47.93
2018-11-07T22:23:12.655Z,56.57
2018-11-07T22:25:41.844Z,49.47
2018-11-07T22:28:11.018Z,42.23
2018-11-07T22:30:40.178Z,42.03
2018-11-07T22:33:09.319Z,52.77
2018-11-07T22:35:38.428Z,52.53
2018-11-07T22:38:07.549Z,61.73
2018-11-07T22:40:36.781Z,50.27
2018-11-07T22:43:06.429Z,62.63
2018-11-07T22:45:36.298Z,66.93
2018-11-07T22:48:05.777Z,57.10
2018-11-07T22:50:35.450Z,56.63
2018-11-07T22:53:04.833Z,50.33
2018-11-07T22:55:34.043Z,53.80
2018-11-07T22:58:03.204Z,73.80
2018-11-07T23:00:37.748Z,71.57
2018-11-07T23:03:06.903Z,61.97
2018-11-07T23:05:36.090Z,63.67
2018-11-07T23:08:05.348Z,92.43
2018-11-07T23:10:34.874Z,91.50
2018-11-07T23:13:04.044Z,94.43
2018-11-07T23:15:38.836Z,76.97
2018-11-07T23:18:07.957Z,62.47
2018-11-07T23:20:37.199Z,67.17
2018-11-07T23:23:06.587Z,60.77
2018-11-07T23:25:35.691Z,62.53
2018-11-07T23:28:04.877Z,60.27
2018-11-07T23:30:34.009Z,57.87
2018-11-07T23:33:03.113Z,55.33
2018-11-07T23:35:32.251Z,59.90
2018-11-07T23:38:01.471Z,56.00
2018-11-07T23:40:30.662Z,52.20
2018-11-07T23:42:59.721Z,44.33
2018-11-07T23:45:28.878Z,49.37
2018-11-07T23:47:57.987Z,47.87
2018-11-07T23:50:27.059Z,49.03
2018-11-07T23:52:56.239Z,47.87
2018-11-07T23:55:25.353Z,54.00
2018-11-07T23:57:54.861Z,58.90
